createdAt,value
2019-05-25T00:00:11.838Z,10.70
2019-05-25T00:02:43.735Z,9.23
2019-05-25T00:05:15.764Z,9.30
2019-05-25T00:07:47.572Z,8.67
2019-05-25T00:10:19.380Z,8.07
2019-05-25T00:12:51.084Z,7.57
2019-05-25T00:15:22.808Z,6.93
2019-05-25T00:17:54.598Z,6.27
2019-05-25T00:20:26.323Z,5.97
2019-05-25T00:22:58.113Z,5.53
2019-05-25T00:25:29.817Z,4.97
2019-05-25T00:28:01.545Z,4.60
2019-05-25T00:30:33.454Z,5.17
2019-05-25T00:33:05.145Z,4.40
2019-05-25T00:35:36.874Z,4.27
2019-05-25T00:38:08.569Z,4.50
2019-05-25T00:40:40.383Z,4.07
2019-05-25T00:43:12.074Z,4.07
2019-05-25T00:45:43.793Z,4.10
2019-05-25T00:48:15.504Z,4.23
2019-05-25T00:50:47.241Z,4.37
2019-05-25T00:53:19.033Z,4.07
2019-05-25T00:55:50.744Z,4.33
2019-05-25T00:58:22.451Z,3.80
2019-05-25T01:00:54.288Z,4.00
2019-05-25T01:03:26.074Z,4.20
2019-05-25T01:05:57.861Z,3.83
2019-05-25T01:08:29.729Z,3.30
2019-05-25T01:11:01.450Z,4.13
2019-05-25T01:13:33.156Z,3.80
2019-05-25T01:16:04.873Z,3.20
2019-05-25T01:18:36.580Z,3.27
2019-05-25T01:21:08.292Z,2.97
2019-05-25T01:23:39.983Z,3.10
2019-05-25T01:26:11.709Z,2.80
2019-05-25T01:28:43.408Z,2.80
2019-05-25T01:31:15.133Z,3.13
2019-05-25T01:33:46.833Z,2.60
2019-05-25T01:36:18.654Z,2.80
2019-05-25T01:38:50.340Z,3.43
2019-05-25T01:41:22.052Z,2.60
2019-05-25T01:43:53.762Z,2.80
2019-05-25T01:46:25.484Z,3.40
2019-05-25T01:48:57.268Z,2.30
2019-05-25T01:51:28.972Z,2.60
2019-05-25T01:54:00.680Z,2.50
2019-05-25T01:56:32.385Z,2.80
2019-05-25T01:59:04.172Z,2.27
2019-05-25T02:01:35.893Z,2.60
2019-05-25T02:04:07.589Z,2.30
2019-05-25T02:06:39.583Z,2.47
2019-05-25T02:09:11.449Z,3.00
2019-05-25T02:11:43.172Z,2.30
2019-05-25T02:14:14.879Z,3.07
2019-05-25T02:16:46.675Z,3.13
2019-05-25T02:19:18.494Z,3.07
2019-05-25T02:21:50.372Z,2.60
2019-05-25T02:24:22.194Z,2.97
2019-05-25T02:26:54.068Z,2.37
2019-05-25T02:29:26.464Z,2.77
2019-05-25T02:31:58.199Z,3.00
2019-05-25T02:34:29.902Z,2.57
2019-05-25T02:37:01.632Z,3.07
2019-05-25T02:39:33.337Z,3.27
2019-05-25T02:42:05.250Z,2.97
2019-05-25T02:44:36.947Z,2.97
2019-05-25T02:47:08.771Z,2.87
2019-05-25T02:49:40.470Z,3.20
2019-05-25T02:52:12.184Z,4.07
2019-05-25T02:54:43.916Z,3.20
2019-05-25T02:57:15.726Z,3.67
2019-05-25T02:59:47.471Z,3.60
2019-05-25T03:02:19.996Z,3.77
2019-05-25T03:04:51.800Z,3.83
2019-05-25T03:07:24.353Z,3.90
2019-05-25T03:09:57.661Z,3.80
2019-05-25T03:12:29.594Z,4.23
2019-05-25T03:15:01.622Z,4.13
2019-05-25T03:17:33.421Z,4.17
2019-05-25T03:20:05.905Z,3.83
2019-05-25T03:22:37.708Z,4.70
2019-05-25T03:25:09.804Z,4.10
2019-05-25T03:27:41.519Z,3.90
2019-05-25T03:30:13.618Z,4.03
2019-05-25T03:32:45.365Z,3.77
2019-05-25T03:35:17.250Z,3.90
2019-05-25T03:37:49.061Z,2.83
2019-05-25T03:40:20.787Z,3.67
2019-05-25T03:42:52.636Z,2.90
2019-05-25T03:45:24.417Z,3.77
2019-05-25T03:47:56.118Z,3.40
2019-05-25T03:50:27.936Z,2.97
2019-05-25T03:52:59.644Z,3.30
2019-05-25T03:55:31.342Z,3.00
2019-05-25T03:58:03.256Z,3.10
2019-05-25T04:00:36.066Z,2.97
2019-05-25T04:03:08.021Z,2.60
2019-05-25T04:05:39.825Z,2.70
2019-05-25T04:08:11.639Z,4.00
2019-05-25T04:10:43.353Z,2.83
2019-05-25T04:13:15.165Z,2.23
2019-05-25T04:15:46.865Z,2.60
2019-05-25T04:18:18.678Z,2.20
2019-05-25T04:20:50.464Z,1.67
2019-05-25T04:23:22.182Z,2.40
2019-05-25T04:25:53.885Z,2.37
2019-05-25T04:28:25.601Z,1.93
2019-05-25T04:30:57.312Z,1.47
2019-05-25T04:33:29.034Z,2.03
2019-05-25T04:36:00.831Z,1.60
2019-05-25T04:38:32.527Z,2.63
2019-05-25T04:41:04.248Z,1.90
2019-05-25T04:43:35.973Z,1.83
2019-05-25T04:46:07.686Z,1.50
2019-05-25T04:48:39.388Z,1.73
2019-05-25T04:51:11.108Z,1.90
2019-05-25T04:53:42.920Z,2.63
2019-05-25T04:56:14.737Z,1.77
2019-05-25T04:58:46.561Z,1.70
2019-05-25T05:01:22.219Z,1.77
2019-05-25T05:03:51.995Z,2.00
2019-05-25T05:06:23.879Z,1.70
2019-05-25T05:08:55.594Z,1.40
2019-05-25T05:11:27.394Z,1.77
2019-05-25T05:13:59.209Z,1.83
2019-05-25T05:16:31.013Z,1.70
2019-05-25T05:19:03.018Z,1.50
2019-05-25T05:21:34.723Z,2.33
2019-05-25T05:24:06.452Z,1.75
2019-05-25T05:26:54.216Z,2.35
2019-05-25T05:29:11.786Z,1.77
2019-05-25T05:31:43.703Z,1.98
2019-05-25T05:34:15.539Z,2.35
2019-05-25T05:36:48.269Z,1.90
2019-05-25T05:39:21.698Z,2.55
2019-05-25T05:41:54.070Z,2.42
2019-05-25T05:44:27.205Z,1.90
2019-05-25T05:47:01.017Z,1.95
2019-05-25T05:49:32.831Z,2.15
2019-05-25T05:52:04.557Z,2.80
2019-05-25T05:54:37.903Z,2.42
2019-05-25T05:57:12.693Z,2.50
2019-05-25T05:59:43.313Z,2.60
2019-05-25T06:02:15.112Z,2.40
2019-05-25T06:04:46.832Z,1.93
2019-05-25T06:07:18.531Z,2.43
2019-05-25T06:09:50.238Z,2.30
2019-05-25T06:12:21.947Z,2.20
2019-05-25T06:14:53.673Z,2.20
2019-05-25T06:17:25.373Z,2.00
2019-05-25T06:19:57.097Z,2.10
2019-05-25T06:22:28.808Z,1.93
2019-05-25T06:25:00.619Z,2.67
2019-05-25T06:27:32.356Z,2.03
2019-05-25T06:30:05.689Z,2.27
2019-05-25T06:32:37.505Z,2.20
2019-05-25T06:35:09.530Z,2.20
2019-05-25T06:37:41.489Z,2.40
2019-05-25T06:40:13.609Z,2.50
2019-05-25T06:42:45.306Z,2.73
2019-05-25T06:45:17.639Z,2.90
2019-05-25T06:47:49.365Z,2.63
2019-05-25T06:50:21.092Z,2.67
2019-05-25T06:52:52.789Z,3.07
2019-05-25T06:55:24.508Z,3.53
2019-05-25T06:57:56.266Z,3.03
2019-05-25T07:00:28.223Z,2.90
2019-05-25T07:03:00.146Z,2.90
2019-05-25T07:05:32.090Z,3.07
2019-05-25T07:08:04.030Z,3.00
2019-05-25T07:10:35.908Z,2.83
2019-05-25T07:13:07.705Z,3.40
2019-05-25T07:15:39.419Z,3.10
2019-05-25T07:18:11.125Z,3.23
2019-05-25T07:20:42.833Z,2.47
2019-05-25T07:23:14.537Z,2.83
2019-05-25T07:25:46.345Z,2.70
2019-05-25T07:28:18.150Z,3.70
2019-05-25T07:30:49.973Z,3.17
2019-05-25T07:33:21.876Z,3.73
2019-05-25T07:35:53.607Z,3.10
2019-05-25T07:38:25.317Z,2.97
2019-05-25T07:40:57.072Z,3.47
2019-05-25T07:43:28.797Z,3.27
2019-05-25T07:46:00.518Z,3.07
2019-05-25T07:48:32.237Z,2.77
2019-05-25T07:51:03.957Z,2.53
2019-05-25T07:53:35.660Z,3.20
2019-05-25T07:56:07.468Z,2.97
2019-05-25T07:58:39.159Z,1.93
2019-05-25T08:01:10.985Z,3.93
2019-05-25T08:03:42.804Z,2.43
2019-05-25T08:06:14.617Z,2.97
2019-05-25T08:08:46.327Z,2.23
2019-05-25T08:11:18.044Z,2.43
2019-05-25T08:13:49.751Z,2.60
2019-05-25T08:16:21.494Z,2.50
2019-05-25T08:18:53.329Z,2.67
2019-05-25T08:21:25.044Z,2.20
2019-05-25T08:23:56.886Z,2.70
2019-05-25T08:26:28.809Z,2.50
2019-05-25T08:29:00.703Z,2.63
2019-05-25T08:31:32.423Z,2.33
2019-05-25T08:34:04.116Z,2.40
2019-05-25T08:36:35.860Z,2.60
2019-05-25T08:39:07.578Z,3.07
2019-05-25T08:41:39.293Z,2.73
2019-05-25T08:44:10.992Z,2.10
2019-05-25T08:46:42.812Z,2.23
2019-05-25T08:49:14.544Z,2.20
2019-05-25T08:51:46.271Z,2.73
2019-05-25T08:54:17.988Z,2.87
2019-05-25T08:56:49.713Z,1.87
2019-05-25T08:59:21.482Z,2.37
2019-05-25T09:01:53.328Z,1.60
2019-05-25T09:04:25.719Z,1.97
2019-05-25T09:06:57.591Z,1.90
2019-05-25T09:09:29.288Z,2.30
2019-05-25T09:12:02.357Z,1.73
2019-05-25T09:14:34.305Z,2.40
2019-05-25T09:17:06.116Z,1.60
2019-05-25T09:19:37.824Z,1.70
2019-05-25T09:22:09.648Z,1.83
2019-05-25T09:24:41.374Z,1.53
2019-05-25T09:27:13.176Z,2.40
2019-05-25T09:29:44.909Z,2.07
2019-05-25T09:32:16.629Z,1.90
2019-05-25T09:34:48.333Z,1.63
2019-05-25T09:37:20.081Z,1.60
2019-05-25T09:39:51.806Z,1.80
2019-05-25T09:42:23.524Z,1.70
2019-05-25T09:44:55.236Z,1.77
2019-05-25T09:47:26.983Z,3.03
2019-05-25T09:49:58.868Z,1.80
2019-05-25T09:52:30.605Z,1.60
2019-05-25T09:55:03.133Z,2.17
2019-05-25T09:57:34.961Z,2.10
2019-05-25T10:00:08.492Z,2.03
2019-05-25T10:02:40.654Z,1.90
2019-05-25T10:05:13.091Z,2.00
2019-05-25T10:07:44.907Z,1.87
2019-05-25T10:10:16.838Z,2.10
2019-05-25T10:12:48.670Z,1.82
2019-05-25T10:15:20.388Z,2.00
2019-05-25T10:17:52.208Z,1.98
2019-05-25T10:20:24.020Z,2.50
2019-05-25T10:22:55.841Z,2.02
2019-05-25T10:25:27.540Z,1.98
2019-05-25T10:27:59.256Z,2.52
2019-05-25T10:30:30.958Z,2.02
2019-05-25T10:33:02.797Z,2.22
2019-05-25T10:35:34.529Z,1.92
2019-05-25T10:38:06.356Z,1.80
2019-05-25T10:40:38.069Z,1.60
2019-05-25T10:43:09.799Z,1.72
2019-05-25T10:45:41.525Z,1.92
2019-05-25T10:48:13.452Z,1.90
2019-05-25T10:50:45.157Z,2.25
2019-05-25T10:53:16.894Z,2.15
2019-05-25T10:55:48.588Z,1.87
2019-05-25T10:58:20.316Z,1.52
2019-05-25T11:00:52.129Z,1.55
2019-05-25T11:03:23.873Z,2.17
2019-05-25T11:05:55.664Z,2.40
2019-05-25T11:08:27.381Z,2.50
2019-05-25T11:10:59.183Z,2.40
2019-05-25T11:13:30.916Z,2.43
2019-05-25T11:16:02.807Z,2.23
2019-05-25T11:18:34.534Z,2.63
2019-05-25T11:21:06.373Z,1.80
2019-05-25T11:23:38.076Z,2.60
2019-05-25T11:26:09.891Z,2.10
2019-05-25T11:28:41.708Z,2.07
2019-05-25T11:31:13.433Z,1.97
2019-05-25T11:33:45.267Z,2.27
2019-05-25T11:36:17.066Z,2.00
2019-05-25T11:38:48.802Z,2.30
2019-05-25T11:41:20.717Z,1.85
2019-05-25T11:43:52.468Z,1.95
2019-05-25T11:46:24.195Z,2.12
2019-05-25T11:48:56.020Z,2.05
2019-05-25T11:51:27.720Z,2.25
2019-05-25T11:53:59.440Z,1.40
2019-05-25T11:56:31.236Z,1.70
2019-05-25T11:59:03.174Z,1.52
2019-05-25T12:01:34.890Z,2.67
2019-05-25T12:04:06.592Z,1.62
2019-05-25T12:06:38.292Z,1.20
2019-05-25T12:09:10.096Z,1.57
2019-05-25T12:11:41.789Z,1.30
2019-05-25T12:14:13.513Z,1.50
2019-05-25T12:16:45.231Z,2.05
2019-05-25T12:19:17.128Z,1.80
2019-05-25T12:21:48.851Z,1.47
2019-05-25T12:24:20.658Z,1.50
2019-05-25T12:26:52.487Z,1.37
2019-05-25T12:29:24.223Z,1.57
2019-05-25T12:32:03.614Z,1.60
2019-05-25T12:34:29.583Z,1.50
2019-05-25T12:37:01.446Z,1.40
2019-05-25T12:39:33.275Z,1.57
2019-05-25T12:42:05.175Z,3.40
2019-05-25T12:44:37.112Z,3.33
2019-05-25T12:47:09.027Z,5.25
2019-05-25T12:49:50.586Z,3.20
2019-05-25T12:52:14.365Z,3.77
2019-05-25T12:54:46.089Z,3.12
2019-05-25T12:57:18.204Z,2.22
2019-05-25T12:59:49.942Z,2.60
2019-05-25T13:02:21.632Z,2.00
2019-05-25T13:04:53.449Z,2.03
2019-05-25T13:07:25.144Z,2.72
2019-05-25T13:09:56.858Z,2.10
2019-05-25T13:12:28.564Z,2.90
2019-05-25T13:15:00.293Z,3.10
2019-05-25T13:17:31.983Z,2.05
2019-05-25T13:20:04.160Z,1.70
2019-05-25T13:22:35.861Z,2.10
2019-05-25T13:25:07.801Z,2.33
2019-05-25T13:27:39.506Z,2.00
2019-05-25T13:30:12.604Z,1.70
2019-05-25T13:32:44.328Z,1.85
2019-05-25T13:35:16.239Z,3.25
2019-05-25T13:37:47.951Z,4.30
2019-05-25T13:40:19.782Z,1.60
2019-05-25T13:42:51.604Z,2.33
2019-05-25T13:45:23.323Z,2.05
2019-05-25T13:47:55.191Z,1.40
2019-05-25T13:50:26.932Z,1.92
2019-05-25T13:52:58.628Z,1.62
2019-05-25T13:55:30.364Z,1.77
2019-05-25T13:58:02.176Z,1.80
2019-05-25T14:00:34.005Z,1.50
2019-05-25T14:03:05.817Z,2.33
2019-05-25T14:05:37.533Z,2.00
2019-05-25T14:08:09.238Z,2.00
2019-05-25T14:10:41.057Z,2.33
2019-05-25T14:13:12.760Z,2.60
2019-05-25T14:15:44.477Z,1.97
2019-05-25T14:18:16.176Z,2.27
2019-05-25T14:20:47.903Z,2.17
2019-05-25T14:23:19.601Z,2.27
2019-05-25T14:25:51.337Z,1.90
2019-05-25T14:28:23.141Z,2.20
2019-05-25T14:30:54.856Z,2.27
2019-05-25T14:33:26.609Z,2.57
2019-05-25T14:35:58.485Z,2.20
2019-05-25T14:38:30.206Z,1.83
2019-05-25T14:41:01.914Z,2.00
2019-05-25T14:43:33.620Z,2.20
2019-05-25T14:46:05.424Z,1.83
2019-05-25T14:48:37.248Z,2.20
2019-05-25T14:51:09.056Z,1.60
2019-05-25T14:53:40.760Z,2.03
2019-05-25T14:56:12.476Z,2.10
2019-05-25T14:58:44.202Z,1.80
2019-05-25T15:01:16.069Z,2.13
2019-05-25T15:03:47.872Z,1.97
2019-05-25T15:06:21.080Z,2.33
2019-05-25T15:08:52.914Z,2.10
2019-05-25T15:11:24.745Z,2.43
2019-05-25T15:13:56.482Z,1.70
2019-05-25T15:16:28.280Z,2.50
2019-05-25T15:18:59.975Z,1.93
2019-05-25T15:21:31.952Z,2.03
2019-05-25T15:24:04.033Z,2.10
2019-05-25T15:26:35.820Z,2.30
2019-05-25T15:29:11.192Z,2.53
2019-05-25T15:31:41.266Z,1.80
2019-05-25T15:34:13.069Z,2.40
2019-05-25T15:36:44.871Z,2.23
2019-05-25T15:39:16.728Z,2.73
2019-05-25T15:41:48.549Z,2.30
2019-05-25T15:44:20.262Z,2.60
2019-05-25T15:46:52.127Z,2.33
2019-05-25T15:49:32.749Z,2.00
2019-05-25T15:51:57.567Z,1.87
2019-05-25T15:54:29.341Z,2.17
2019-05-25T15:57:01.202Z,2.50
2019-05-25T15:59:33.006Z,5.07
2019-05-25T16:02:05.056Z,5.37
2019-05-25T16:04:36.786Z,3.67
2019-05-25T16:07:08.512Z,2.80
2019-05-25T16:09:40.344Z,2.80
2019-05-25T16:12:12.052Z,2.07
2019-05-25T16:14:43.757Z,3.17
2019-05-25T16:17:15.478Z,4.40
2019-05-25T16:19:47.272Z,2.60
2019-05-25T16:22:19.020Z,2.30
2019-05-25T16:24:50.795Z,2.60
2019-05-25T16:27:22.568Z,2.10
2019-05-25T16:29:54.263Z,2.20
2019-05-25T16:32:25.992Z,2.50
2019-05-25T16:34:57.700Z,2.83
2019-05-25T16:37:29.469Z,2.50
2019-05-25T16:40:01.493Z,2.40
2019-05-25T16:42:33.229Z,2.17
2019-05-25T16:45:06.099Z,1.60
2019-05-25T16:47:38.071Z,1.90
2019-05-25T16:50:13.853Z,2.67
2019-05-25T16:52:43.714Z,2.53
2019-05-25T16:55:15.738Z,2.67
2019-05-25T16:57:47.548Z,3.50
2019-05-25T17:00:26.997Z,1.60
2019-05-25T17:02:59.018Z,2.40
2019-05-25T17:05:30.813Z,1.70
2019-05-25T17:08:02.749Z,2.20
2019-05-25T17:10:34.450Z,1.73
2019-05-25T17:13:06.169Z,1.80
2019-05-25T17:15:37.960Z,5.67
2019-05-25T17:18:09.677Z,6.10
2019-05-25T17:20:41.376Z,2.30
2019-05-25T17:23:13.084Z,2.13
2019-05-25T17:25:44.791Z,2.17
2019-05-25T17:28:16.713Z,2.30
2019-05-25T17:30:48.535Z,1.97
2019-05-25T17:33:20.355Z,1.87
2019-05-25T17:35:52.068Z,1.83
2019-05-25T17:38:23.814Z,1.50
2019-05-25T17:40:55.713Z,2.37
2019-05-25T17:43:27.432Z,2.00
2019-05-25T17:45:59.164Z,3.57
2019-05-25T17:48:30.965Z,1.90
2019-05-25T17:51:02.768Z,2.10
2019-05-25T17:53:34.576Z,2.87
2019-05-25T17:56:06.266Z,2.30
2019-05-25T17:58:37.986Z,2.20
2019-05-25T18:01:09.687Z,2.87
2019-05-25T18:03:41.410Z,2.63
2019-05-25T18:06:14.565Z,2.53
2019-05-25T18:08:46.389Z,2.20
2019-05-25T18:11:18.180Z,2.73
2019-05-25T18:13:49.938Z,2.33
2019-05-25T18:16:21.733Z,2.87
2019-05-25T18:18:53.449Z,2.70
2019-05-25T18:21:25.181Z,2.50
2019-05-25T18:23:56.988Z,2.40
2019-05-25T18:26:28.716Z,2.40
2019-05-25T18:29:00.529Z,3.00
2019-05-25T18:31:32.239Z,2.90
2019-05-25T18:34:04.087Z,2.60
2019-05-25T18:36:35.920Z,2.80
2019-05-25T18:39:07.780Z,3.00
2019-05-25T18:41:39.488Z,3.50
2019-05-25T18:44:11.214Z,3.17
2019-05-25T18:46:42.907Z,4.30
2019-05-25T18:49:14.798Z,2.97
2019-05-25T18:51:46.585Z,2.93
2019-05-25T18:54:18.333Z,3.03
2019-05-25T18:56:50.061Z,2.60
2019-05-25T18:59:21.888Z,2.53
2019-05-25T19:01:53.692Z,7.40
2019-05-25T19:04:42.103Z,2.90
2019-05-25T19:06:59.118Z,3.20
2019-05-25T19:09:30.872Z,2.90
2019-05-25T19:12:03.115Z,3.10
2019-05-25T19:14:34.925Z,2.80
2019-05-25T19:17:06.620Z,3.13
2019-05-25T19:19:38.346Z,2.70
2019-05-25T19:22:10.069Z,3.03
2019-05-25T19:24:41.784Z,3.10
2019-05-25T19:27:13.502Z,3.10
2019-05-25T19:29:45.313Z,2.60
2019-05-25T19:32:17.025Z,3.20
2019-05-25T19:34:59.121Z,2.30
2019-05-25T19:37:22.355Z,2.70
2019-05-25T19:39:54.109Z,2.43
2019-05-25T19:42:25.827Z,2.30
2019-05-25T19:44:57.542Z,3.07
2019-05-25T19:47:29.236Z,2.80
2019-05-25T19:50:04.775Z,2.50
2019-05-25T19:52:34.690Z,2.87
2019-05-25T19:55:06.929Z,2.83
2019-05-25T19:57:38.652Z,2.67
2019-05-25T20:00:12.635Z,2.67
2019-05-25T20:02:44.494Z,3.70
2019-05-25T20:05:17.720Z,3.73
2019-05-25T20:07:49.668Z,3.33
2019-05-25T20:10:21.783Z,3.20
2019-05-25T20:12:53.481Z,3.67
2019-05-25T20:15:25.195Z,3.40
2019-05-25T20:17:56.893Z,2.87
2019-05-25T20:20:28.633Z,3.53
2019-05-25T20:23:00.344Z,3.70
2019-05-25T20:25:32.165Z,3.73
2019-05-25T20:28:03.885Z,3.90
2019-05-25T20:30:35.598Z,3.97
2019-05-25T20:33:07.301Z,3.47
2019-05-25T20:35:39.015Z,3.77
2019-05-25T20:38:10.808Z,3.87
2019-05-25T20:40:42.556Z,3.67
2019-05-25T20:43:14.370Z,3.80
2019-05-25T20:45:46.085Z,3.47
2019-05-25T20:48:17.797Z,3.97
2019-05-25T20:50:49.520Z,3.77
2019-05-25T20:53:21.235Z,3.73
2019-05-25T20:55:53.054Z,3.83
2019-05-25T20:58:24.853Z,3.13
2019-05-25T21:00:56.631Z,3.83
2019-05-25T21:03:28.416Z,3.40
2019-05-25T21:06:00.129Z,3.70
2019-05-25T21:08:31.832Z,3.97
2019-05-25T21:11:03.689Z,3.57
2019-05-25T21:13:35.388Z,4.07
2019-05-25T21:16:07.161Z,4.60
2019-05-25T21:18:38.949Z,4.53
2019-05-25T21:21:10.668Z,4.23
2019-05-25T21:23:42.385Z,3.63
2019-05-25T21:26:14.116Z,4.23
2019-05-25T21:28:45.912Z,3.87
2019-05-25T21:31:17.741Z,4.43
2019-05-25T21:33:49.441Z,4.47
2019-05-25T21:36:21.188Z,3.83
2019-05-25T21:38:52.892Z,5.37
2019-05-25T21:41:24.724Z,3.60
2019-05-25T21:43:56.462Z,4.50
2019-05-25T21:46:28.218Z,4.70
2019-05-25T21:48:59.959Z,5.50
2019-05-25T21:51:31.845Z,5.53
2019-05-25T21:54:03.691Z,4.93
2019-05-25T21:56:35.545Z,4.30
2019-05-25T21:59:07.233Z,6.33
2019-05-25T22:01:38.956Z,4.77
2019-05-25T22:04:10.808Z,5.33
2019-05-25T22:06:42.609Z,4.70
2019-05-25T22:09:14.403Z,4.87
2019-05-25T22:11:46.127Z,4.87
2019-05-25T22:14:17.822Z,5.70
2019-05-25T22:16:49.546Z,5.30
2019-05-25T22:19:21.280Z,5.67
2019-05-25T22:21:53.110Z,5.93
2019-05-25T22:24:24.917Z,5.47
2019-05-25T22:26:56.637Z,5.67
2019-05-25T22:29:28.434Z,6.07
2019-05-25T22:32:00.175Z,4.90
2019-05-25T22:34:31.880Z,5.53
2019-05-25T22:37:03.689Z,5.67
2019-05-25T22:39:35.412Z,6.30
2019-05-25T22:42:07.216Z,5.63
2019-05-25T22:44:39.004Z,5.67
2019-05-25T22:47:10.722Z,5.37
2019-05-25T22:49:42.430Z,4.93
2019-05-25T22:52:14.136Z,5.90
2019-05-25T22:54:45.843Z,5.90
2019-05-25T22:57:17.647Z,6.00
2019-05-25T22:59:49.336Z,5.67
2019-05-25T23:02:21.057Z,5.73
2019-05-25T23:04:52.758Z,5.40
2019-05-25T23:07:24.480Z,5.23
2019-05-25T23:09:56.176Z,5.97
2019-05-25T23:12:27.889Z,6.17
2019-05-25T23:14:59.604Z,5.80
2019-05-25T23:17:31.400Z,5.50
2019-05-25T23:20:03.776Z,6.10
2019-05-25T23:22:35.501Z,6.17
2019-05-25T23:25:08.099Z,7.00
2019-05-25T23:27:39.856Z,7.23
2019-05-25T23:30:11.753Z,5.83
2019-05-25T23:32:43.566Z,6.20
2019-05-25T23:35:15.268Z,5.97
2019-05-25T23:37:46.981Z,5.67
2019-05-25T23:40:18.789Z,6.03
2019-05-25T23:42:50.557Z,6.20
2019-05-25T23:45:22.537Z,6.43
2019-05-25T23:47:54.292Z,6.30
2019-05-25T23:50:26.000Z,6.73
2019-05-25T23:52:57.725Z,5.33
2019-05-25T23:55:29.511Z,6.13
2019-05-25T23:58:01.291Z,7.03
